createdAt,value
2022-09-21T00:01:29.424Z,4.93
2022-09-21T00:03:58.397Z,6.17
2022-09-21T00:06:27.853Z,4.43
2022-09-21T00:08:55.329Z,4.27
2022-09-21T00:11:26.103Z,4.23
2022-09-21T00:14:04.607Z,4.53
2022-09-21T00:16:34.224Z,4.67
2022-09-21T00:19:01.081Z,5.90
2022-09-21T00:21:28.293Z,6.07
2022-09-21T00:23:55.420Z,6.27
2022-09-21T00:26:24.608Z,4.77
2022-09-21T00:28:56.579Z,7.20
2022-09-21T00:31:23.984Z,4.70
2022-09-21T00:33:51.241Z,6.10
2022-09-21T00:36:20.519Z,4.80
2022-09-21T00:38:52.844Z,6.37
2022-09-21T00:41:20.217Z,4.43
2022-09-21T00:44:08.346Z,6.50
2022-09-21T00:46:39.089Z,5.37
2022-09-21T00:49:06.186Z,5.90
2022-09-21T00:51:32.964Z,4.33
2022-09-21T00:54:06.807Z,5.73
2022-09-21T00:56:35.232Z,5.30
2022-09-21T00:59:02.995Z,4.30
2022-09-21T01:01:30.945Z,4.97
2022-09-21T01:03:57.910Z,5.40
2022-09-21T01:06:25.277Z,3.83
2022-09-21T01:08:56.115Z,5.10
2022-09-21T01:11:34.435Z,4.27
2022-09-21T01:14:04.164Z,7.87
2022-09-21T01:16:39.948Z,4.13
2022-09-21T01:19:31.454Z,4.03
2022-09-21T01:22:05.903Z,4.73
2022-09-21T01:24:39.441Z,3.77
2022-09-21T01:27:38.132Z,4.60
2022-09-21T01:30:11.855Z,4.73
2022-09-21T01:32:48.385Z,4.87
2022-09-21T01:35:21.505Z,9.50
2022-09-21T01:37:56.990Z,5.73
2022-09-21T01:40:34.545Z,4.70
2022-09-21T01:43:05.579Z,3.90
2022-09-21T01:45:40.774Z,3.37
2022-09-21T01:48:08.347Z,3.87
2022-09-21T01:50:40.743Z,2.47
2022-09-21T01:53:18.420Z,5.07
2022-09-21T01:55:59.656Z,5.67
2022-09-21T01:59:06.587Z,3.60
2022-09-21T02:01:39.960Z,4.83
2022-09-21T02:04:11.326Z,3.60
2022-09-21T02:06:41.446Z,3.77
2022-09-21T02:09:10.554Z,4.10
2022-09-21T02:11:43.860Z,4.43
2022-09-21T02:14:21.491Z,4.80
2022-09-21T02:17:00.766Z,5.37
2022-09-21T02:19:48.103Z,6.80
2022-09-21T02:22:29.319Z,5.60
2022-09-21T02:25:04.822Z,3.30
2022-09-21T02:27:53.160Z,6.53
2022-09-21T02:30:22.381Z,4.03
2022-09-21T02:32:54.992Z,3.67
2022-09-21T02:35:43.747Z,5.53
2022-09-21T02:38:17.944Z,5.67
2022-09-21T02:40:56.664Z,5.03
2022-09-21T02:43:32.095Z,5.23
2022-09-21T02:46:09.751Z,5.03
2022-09-21T02:48:47.066Z,4.47
2022-09-21T02:51:19.186Z,3.77
2022-09-21T02:53:47.913Z,3.40
2022-09-21T02:56:16.002Z,4.80
2022-09-21T02:58:51.018Z,4.70
2022-09-21T03:01:19.135Z,6.17
2022-09-21T03:03:45.912Z,3.83
2022-09-21T03:06:12.662Z,4.07
2022-09-21T03:08:39.647Z,6.80
2022-09-21T03:11:06.469Z,4.53
2022-09-21T03:13:33.529Z,4.77
2022-09-21T03:16:02.685Z,5.33
2022-09-21T03:18:30.539Z,4.03
2022-09-21T03:20:57.316Z,6.13
2022-09-21T03:23:24.058Z,4.97
2022-09-21T03:25:52.327Z,6.53
2022-09-21T03:28:19.828Z,7.63
2022-09-21T03:30:47.907Z,6.53
2022-09-21T03:33:15.177Z,6.47
2022-09-21T03:35:42.492Z,4.63
2022-09-21T03:38:09.490Z,5.30
2022-09-21T03:40:36.284Z,3.93
2022-09-21T03:43:03.512Z,4.40
2022-09-21T03:45:30.212Z,5.37
2022-09-21T03:47:58.736Z,5.13
2022-09-21T03:50:28.418Z,3.63
2022-09-21T03:52:56.386Z,4.77
2022-09-21T03:55:23.668Z,8.27
2022-09-21T03:57:50.328Z,5.43
2022-09-21T04:00:17.777Z,5.93
2022-09-21T04:02:44.614Z,5.10
2022-09-21T04:05:14.828Z,4.67
2022-09-21T04:07:42.995Z,3.53
2022-09-21T04:10:13.015Z,5.33
2022-09-21T04:12:44.197Z,8.57
2022-09-21T04:15:15.973Z,5.30
2022-09-21T04:17:42.655Z,3.90
2022-09-21T04:20:09.664Z,5.07
2022-09-21T04:22:41.089Z,5.53
2022-09-21T04:25:10.664Z,5.50
2022-09-21T04:27:37.561Z,4.97
2022-09-21T04:30:05.653Z,5.10
2022-09-21T04:32:32.348Z,5.83
2022-09-21T04:34:59.044Z,5.00
2022-09-21T04:37:25.870Z,7.87
2022-09-21T04:39:52.669Z,6.90
2022-09-21T04:42:19.452Z,4.47
2022-09-21T04:44:46.126Z,4.57
2022-09-21T04:47:12.906Z,5.03
2022-09-21T04:49:39.639Z,3.93
2022-09-21T04:52:06.315Z,6.53
2022-09-21T04:54:33.041Z,6.17
2022-09-21T04:56:59.796Z,5.97
2022-09-21T04:59:26.497Z,5.07
2022-09-21T05:01:53.211Z,7.10
2022-09-21T05:04:20.031Z,7.17
2022-09-21T05:06:46.849Z,6.47
2022-09-21T05:09:32.248Z,6.60
2022-09-21T05:11:58.990Z,7.40
2022-09-21T05:14:25.659Z,7.50
2022-09-21T05:16:52.392Z,6.47
2022-09-21T05:19:19.068Z,5.27
2022-09-21T05:21:46.415Z,6.77
2022-09-21T05:24:15.943Z,7.00
2022-09-21T05:26:42.648Z,6.60
2022-09-21T05:29:09.692Z,4.43
2022-09-21T05:31:48.413Z,5.50
2022-09-21T05:34:44.159Z,5.37
2022-09-21T05:37:37.825Z,6.17
2022-09-21T05:40:06.281Z,7.17
2022-09-21T05:42:33.432Z,5.63
2022-09-21T05:45:00.598Z,5.03
2022-09-21T05:47:40.536Z,4.97
2022-09-21T05:50:16.577Z,5.30
2022-09-21T05:52:49.023Z,10.17
2022-09-21T05:55:25.137Z,5.60
2022-09-21T05:58:40.697Z,5.93
2022-09-21T06:01:10.393Z,5.93
2022-09-21T06:03:38.171Z,6.20
2022-09-21T06:06:04.951Z,5.57
2022-09-21T06:08:31.834Z,6.23
2022-09-21T06:10:58.669Z,6.70
2022-09-21T06:13:26.522Z,5.70
2022-09-21T06:15:53.826Z,4.70
2022-09-21T06:18:20.617Z,6.73
2022-09-21T06:20:47.340Z,4.23
2022-09-21T06:23:15.592Z,5.10
2022-09-21T06:25:42.302Z,5.10
2022-09-21T06:28:11.727Z,5.00
2022-09-21T06:30:40.773Z,4.97
2022-09-21T06:33:07.913Z,5.30
2022-09-21T06:35:36.132Z,5.33
2022-09-21T06:38:07.630Z,6.30
2022-09-21T06:40:36.231Z,6.93
2022-09-21T06:43:04.153Z,6.60
2022-09-21T06:45:31.272Z,6.00
2022-09-21T06:47:59.314Z,5.00
2022-09-21T06:50:26.199Z,8.83
2022-09-21T06:52:52.934Z,6.60
2022-09-21T06:55:19.994Z,7.97
2022-09-21T06:57:47.152Z,6.80
2022-09-21T07:00:14.510Z,8.13
2022-09-21T07:02:48.146Z,7.90
2022-09-21T07:05:14.886Z,6.17
2022-09-21T07:07:41.617Z,6.37
2022-09-21T07:10:13.519Z,5.38
2022-09-21T07:12:41.701Z,5.90
2022-09-21T07:15:10.327Z,7.00
2022-09-21T07:17:39.518Z,6.82
2022-09-21T07:20:08.044Z,6.03
2022-09-21T07:22:35.715Z,6.35
2022-09-21T07:25:03.670Z,6.50
2022-09-21T07:27:32.104Z,6.72
2022-09-21T07:29:58.895Z,5.47
2022-09-21T07:32:26.123Z,9.05
2022-09-21T07:34:56.549Z,6.50
2022-09-21T07:37:25.014Z,4.32
2022-09-21T07:39:52.923Z,5.03
2022-09-21T07:42:23.018Z,4.20
2022-09-21T07:44:50.918Z,4.82
2022-09-21T07:47:17.785Z,5.22
2022-09-21T07:49:45.211Z,4.80
2022-09-21T07:52:12.374Z,5.70
2022-09-21T07:54:39.029Z,4.82
2022-09-21T07:57:24.481Z,4.13
2022-09-21T07:59:51.247Z,4.35
2022-09-21T08:02:18.082Z,4.40
2022-09-21T08:04:44.784Z,4.60
2022-09-21T08:07:13.272Z,2.55
2022-09-21T08:09:40.833Z,3.75
2022-09-21T08:12:09.107Z,4.22
2022-09-21T08:14:36.058Z,5.00
2022-09-21T08:17:02.920Z,4.50
2022-09-21T08:19:29.624Z,2.75
2022-09-21T08:21:57.908Z,4.03
2022-09-21T08:24:26.784Z,3.72
2022-09-21T08:26:55.741Z,3.60
2022-09-21T08:29:24.606Z,2.72
2022-09-21T08:31:52.701Z,2.30
2022-09-21T08:34:20.101Z,3.90
2022-09-21T08:36:47.199Z,4.07
2022-09-21T08:39:15.525Z,3.20
2022-09-21T08:42:06.108Z,2.60
2022-09-21T08:44:56.361Z,3.40
2022-09-21T08:47:38.252Z,3.60
2022-09-21T08:50:14.403Z,3.83
2022-09-21T08:52:42.059Z,3.75
2022-09-21T08:55:18.032Z,3.88
2022-09-21T08:57:44.742Z,4.95
2022-09-21T09:00:16.770Z,3.35
2022-09-21T09:03:05.006Z,5.93
2022-09-21T09:05:41.159Z,3.47
2022-09-21T09:08:45.277Z,3.55
2022-09-21T09:11:17.823Z,3.45
2022-09-21T09:14:22.731Z,4.22
2022-09-21T09:17:07.986Z,3.50
2022-09-21T09:19:43.658Z,5.32
2022-09-21T09:22:15.158Z,4.43
2022-09-21T09:24:43.092Z,3.53
2022-09-21T09:27:15.196Z,2.38
2022-09-21T09:30:02.945Z,4.70
2022-09-21T09:33:13.742Z,3.88
2022-09-21T09:35:47.982Z,3.95
2022-09-21T09:38:19.945Z,2.88
2022-09-21T09:41:17.749Z,4.93
2022-09-21T09:43:56.453Z,4.75
2022-09-21T09:46:32.145Z,4.03
2022-09-21T09:49:36.790Z,3.05
2022-09-21T09:52:04.862Z,3.08
2022-09-21T09:54:35.387Z,3.55
2022-09-21T09:57:04.574Z,2.83
2022-09-21T09:59:50.467Z,3.25
2022-09-21T10:02:27.223Z,4.30
2022-09-21T10:05:05.884Z,3.05
2022-09-21T10:07:43.026Z,3.00
2022-09-21T10:10:29.049Z,2.10
2022-09-21T10:13:18.534Z,2.75
2022-09-21T10:15:58.463Z,2.00
2022-09-21T10:18:50.068Z,2.72
2022-09-21T10:21:23.528Z,2.67
2022-09-21T10:23:54.326Z,2.20
2022-09-21T10:26:21.692Z,2.22
2022-09-21T10:28:59.582Z,1.63
2022-09-21T10:31:29.839Z,2.25
2022-09-21T10:34:16.208Z,2.15
2022-09-21T10:36:51.785Z,2.63
2022-09-21T10:39:29.269Z,2.47
2022-09-21T10:42:12.152Z,2.33
2022-09-21T10:44:46.984Z,2.78
2022-09-21T10:47:19.083Z,2.03
2022-09-21T10:50:26.259Z,2.28
2022-09-21T10:53:19.195Z,1.98
2022-09-21T10:56:14.248Z,3.42
2022-09-21T10:59:20.499Z,2.97
2022-09-21T11:01:50.115Z,3.50
2022-09-21T11:04:43.537Z,3.00
2022-09-21T11:07:27.352Z,1.63
2022-09-21T11:10:34.647Z,1.40
2022-09-21T11:13:44.230Z,3.78
2022-09-21T11:16:13.936Z,2.10
2022-09-21T11:18:53.890Z,3.60
2022-09-21T11:21:30.098Z,1.67
2022-09-21T11:24:03.247Z,3.15
2022-09-21T11:26:38.223Z,1.92
2022-09-21T11:29:13.423Z,2.40
2022-09-21T11:32:15.058Z,3.08
2022-09-21T11:35:17.493Z,2.47
2022-09-21T11:37:56.481Z,3.08
2022-09-21T11:40:32.325Z,1.85
2022-09-21T11:43:20.182Z,1.80
2022-09-21T11:46:01.403Z,1.80
2022-09-21T11:48:39.739Z,2.05
2022-09-21T11:51:15.666Z,2.45
2022-09-21T11:54:08.476Z,2.50
2022-09-21T11:56:53.533Z,2.22
2022-09-21T11:59:32.838Z,2.05
2022-09-21T12:02:44.649Z,2.33
2022-09-21T12:05:29.780Z,2.92
2022-09-21T12:08:19.580Z,2.00
2022-09-21T12:10:58.506Z,2.78
2022-09-21T12:13:46.957Z,2.97
2022-09-21T12:16:16.938Z,1.75
2022-09-21T12:18:55.069Z,2.30
2022-09-21T12:21:27.481Z,3.22
2022-09-21T12:23:57.121Z,2.97
2022-09-21T12:26:29.638Z,3.22
2022-09-21T12:29:02.811Z,5.28
2022-09-21T12:31:51.301Z,3.70
2022-09-21T12:34:22.778Z,3.30
2022-09-21T12:37:12.476Z,2.73
2022-09-21T12:39:41.867Z,3.23
2022-09-21T12:42:17.279Z,2.37
2022-09-21T12:44:55.566Z,3.90
2022-09-21T12:47:45.891Z,2.53
2022-09-21T12:50:18.447Z,2.83
2022-09-21T12:52:46.013Z,1.57
2022-09-21T12:55:17.435Z,1.33
2022-09-21T12:58:15.789Z,3.37
2022-09-21T13:01:01.603Z,2.73
2022-09-21T13:03:44.826Z,1.53
2022-09-21T13:06:41.810Z,2.03
2022-09-21T13:09:13.296Z,2.63
2022-09-21T13:12:07.767Z,2.33
2022-09-21T13:14:41.538Z,1.13
2022-09-21T13:17:20.723Z,0.80
2022-09-21T13:20:17.697Z,2.67
2022-09-21T13:23:06.734Z,1.80
2022-09-21T13:25:37.642Z,2.80
2022-09-21T13:28:24.136Z,2.07
2022-09-21T13:31:09.931Z,1.63
2022-09-21T13:34:15.695Z,1.57
2022-09-21T13:36:43.506Z,1.83
2022-09-21T13:39:18.774Z,1.73
2022-09-21T13:42:02.512Z,1.93
2022-09-21T13:44:34.707Z,2.20
2022-09-21T13:47:02.212Z,1.50
2022-09-21T13:49:34.694Z,1.50
2022-09-21T13:52:13.404Z,1.73
2022-09-21T13:54:56.953Z,1.97
2022-09-21T13:57:47.035Z,2.07
2022-09-21T14:00:14.376Z,1.77
2022-09-21T14:02:44.702Z,2.83
2022-09-21T14:05:43.190Z,1.70
2022-09-21T14:08:15.943Z,1.90
2022-09-21T14:10:56.634Z,2.60
2022-09-21T14:13:31.601Z,2.57
2022-09-21T14:16:47.459Z,1.27
2022-09-21T14:19:17.366Z,2.00
2022-09-21T14:22:07.422Z,3.43
2022-09-21T14:24:49.631Z,0.87
2022-09-21T14:27:46.104Z,1.57
2022-09-21T14:30:22.331Z,2.40
2022-09-21T14:33:01.160Z,2.07
2022-09-21T14:35:33.842Z,1.87
2022-09-21T14:38:07.999Z,1.73
2022-09-21T14:40:39.826Z,1.97
2022-09-21T14:43:09.788Z,1.17
2022-09-21T14:45:57.164Z,0.90
2022-09-21T14:48:58.333Z,2.50
2022-09-21T14:51:55.678Z,1.70
2022-09-21T14:54:37.560Z,1.20
2022-09-21T14:57:23.804Z,1.20
2022-09-21T15:00:14.671Z,0.80
2022-09-21T15:02:44.566Z,1.30
2022-09-21T15:05:29.409Z,0.87
2022-09-21T15:08:39.442Z,1.70
2022-09-21T15:11:24.276Z,1.50
2022-09-21T15:14:07.546Z,1.17
2022-09-21T15:16:50.314Z,1.17
2022-09-21T15:19:28.190Z,1.83
2022-09-21T15:22:09.386Z,0.87
2022-09-21T15:24:36.237Z,1.80
2022-09-21T15:27:10.350Z,1.13
2022-09-21T15:29:38.548Z,2.63
2022-09-21T15:32:08.080Z,1.13
2022-09-21T15:34:36.402Z,1.23
2022-09-21T15:37:16.551Z,1.53
2022-09-21T15:39:43.561Z,1.60
2022-09-21T15:42:11.211Z,1.60
2022-09-21T15:44:39.436Z,1.60
2022-09-21T15:47:11.170Z,1.60
2022-09-21T15:49:39.487Z,0.87
2022-09-21T15:52:16.453Z,1.60
2022-09-21T15:54:52.680Z,2.90
2022-09-21T15:57:39.610Z,1.77
2022-09-21T16:00:18.274Z,3.23
2022-09-21T16:03:05.092Z,1.93
2022-09-21T16:05:43.112Z,2.20
2022-09-21T16:08:30.190Z,1.93
2022-09-21T16:11:16.139Z,2.40
2022-09-21T16:14:04.840Z,2.57
2022-09-21T16:16:31.911Z,0.80
2022-09-21T16:19:01.996Z,2.47
2022-09-21T16:21:40.043Z,1.70
2022-09-21T16:24:22.828Z,2.67
2022-09-21T16:27:03.049Z,2.10
2022-09-21T16:29:42.257Z,2.10
2022-09-21T16:32:18.007Z,2.97
2022-09-21T16:34:46.717Z,2.40
2022-09-21T16:37:27.476Z,1.47
2022-09-21T16:39:56.175Z,0.90
2022-09-21T16:42:28.903Z,1.37
2022-09-21T16:44:57.792Z,1.80
2022-09-21T16:47:27.291Z,1.33
2022-09-21T16:49:58.047Z,1.80
2022-09-21T16:52:28.628Z,1.50
2022-09-21T16:54:58.846Z,2.53
2022-09-21T16:57:26.622Z,1.13
2022-09-21T16:59:53.451Z,1.53
2022-09-21T17:02:23.151Z,0.90
2022-09-21T17:04:52.737Z,2.50
2022-09-21T17:07:20.009Z,2.63
2022-09-21T17:09:48.943Z,1.80
2022-09-21T17:12:22.299Z,1.07
2022-09-21T17:14:52.027Z,1.97
2022-09-21T17:17:22.274Z,1.93
2022-09-21T17:19:52.980Z,2.60
2022-09-21T17:22:22.731Z,1.83
2022-09-21T17:24:52.518Z,3.03
2022-09-21T17:27:23.189Z,1.10
2022-09-21T17:29:53.915Z,1.77
2022-09-21T17:32:25.464Z,2.07
2022-09-21T17:35:17.238Z,3.03
2022-09-21T17:37:45.122Z,1.87
2022-09-21T17:40:13.035Z,1.23
2022-09-21T17:42:43.229Z,3.30
2022-09-21T17:45:28.900Z,1.50
2022-09-21T17:47:57.320Z,4.00
2022-09-21T17:50:27.247Z,3.17
2022-09-21T17:53:16.204Z,2.23
2022-09-21T17:55:54.527Z,2.73
2022-09-21T17:59:01.676Z,2.00
2022-09-21T18:01:36.248Z,2.53
2022-09-21T18:04:05.944Z,2.17
2022-09-21T18:06:35.002Z,3.40
2022-09-21T18:09:02.625Z,4.47
2022-09-21T18:11:37.004Z,2.10
2022-09-21T18:14:22.999Z,5.23
2022-09-21T18:17:11.092Z,2.93
2022-09-21T18:20:26.180Z,4.30
2022-09-21T18:23:06.754Z,2.63
2022-09-21T18:25:50.953Z,3.10
2022-09-21T18:28:24.092Z,2.80
2022-09-21T18:31:31.100Z,3.30
2022-09-21T18:34:29.933Z,3.43
2022-09-21T18:37:45.321Z,2.73
2022-09-21T18:40:52.105Z,2.03
2022-09-21T18:43:26.553Z,2.93
2022-09-21T18:46:22.401Z,2.90
2022-09-21T18:48:51.148Z,2.47
2022-09-21T18:51:22.141Z,2.23
2022-09-21T18:54:02.187Z,3.10
2022-09-21T18:56:34.819Z,3.27
2022-09-21T18:59:02.793Z,3.00
2022-09-21T19:01:33.001Z,4.13
2022-09-21T19:04:01.425Z,4.17
2022-09-21T19:06:55.030Z,2.80
2022-09-21T19:09:45.978Z,4.27
2022-09-21T19:12:30.200Z,2.47
2022-09-21T19:18:21.342Z,2.80
2022-09-21T19:21:00.206Z,3.07
2022-09-21T19:23:58.865Z,3.13
2022-09-21T19:26:38.928Z,4.43
2022-09-21T19:29:33.541Z,4.47
2022-09-21T19:32:02.219Z,3.57
2022-09-21T19:34:30.196Z,3.23
2022-09-21T19:37:07.019Z,4.30
2022-09-21T19:39:37.232Z,3.23
2022-09-21T19:42:03.905Z,3.33
2022-09-21T19:44:51.517Z,3.47
2022-09-21T19:47:31.535Z,2.50
2022-09-21T19:50:20.808Z,2.40
2022-09-21T19:52:48.007Z,3.80
2022-09-21T19:55:41.156Z,4.00
2022-09-21T19:58:27.809Z,6.53
2022-09-21T20:00:56.746Z,3.00
2022-09-21T20:03:31.751Z,3.93
2022-09-21T20:06:19.310Z,3.20
2022-09-21T20:08:55.226Z,3.53
2022-09-21T20:11:41.545Z,3.07
2022-09-21T20:14:19.298Z,4.37
2022-09-21T20:16:50.130Z,3.50
2022-09-21T20:19:33.337Z,3.10
2022-09-21T20:22:09.025Z,2.90
2022-09-21T20:25:00.212Z,3.60
2022-09-21T20:27:34.921Z,5.70
2022-09-21T20:30:06.082Z,3.73
2022-09-21T20:32:35.350Z,3.93
2022-09-21T20:35:02.174Z,4.40
2022-09-21T20:37:31.202Z,3.50
2022-09-21T20:40:01.677Z,5.10
2022-09-21T20:42:28.923Z,3.40
2022-09-21T20:44:58.881Z,3.60
2022-09-21T20:47:28.973Z,3.07
2022-09-21T20:50:00.503Z,4.03
2022-09-21T20:52:27.219Z,3.43
2022-09-21T20:54:53.869Z,4.07
2022-09-21T20:57:21.400Z,2.40
2022-09-21T20:59:48.118Z,3.03
2022-09-21T21:02:16.602Z,3.90
2022-09-21T21:04:43.314Z,3.83
2022-09-21T21:07:10.125Z,4.80
2022-09-21T21:09:37.723Z,2.80
2022-09-21T21:12:05.251Z,2.10
2022-09-21T21:14:34.692Z,2.90
2022-09-21T21:17:02.676Z,1.93
2022-09-21T21:19:32.223Z,2.63
2022-09-21T21:21:59.913Z,1.70
2022-09-21T21:24:40.264Z,1.90
2022-09-21T21:27:19.031Z,1.87
2022-09-21T21:29:47.325Z,2.50
2022-09-21T21:32:15.133Z,2.57
2022-09-21T21:34:45.223Z,3.13
2022-09-21T21:37:16.486Z,1.97
2022-09-21T21:39:43.457Z,1.83
2022-09-21T21:42:10.506Z,1.90
2022-09-21T21:44:37.499Z,2.87
2022-09-21T21:47:27.447Z,3.27
2022-09-21T21:49:52.396Z,2.90
2022-09-21T21:52:19.115Z,3.80
2022-09-21T21:54:45.854Z,2.53
2022-09-21T21:57:15.089Z,2.70
2022-09-21T21:59:43.755Z,4.47
2022-09-21T22:02:10.608Z,3.50
2022-09-21T22:04:39.189Z,3.37
2022-09-21T22:07:07.165Z,4.67
2022-09-21T22:09:35.472Z,2.73
2022-09-21T22:12:03.720Z,4.87
2022-09-21T22:14:32.779Z,3.40
2022-09-21T22:17:01.195Z,2.47
2022-09-21T22:19:28.313Z,3.53
2022-09-21T22:21:55.588Z,3.33
2022-09-21T22:24:22.642Z,2.50
2022-09-21T22:26:49.321Z,3.87
2022-09-21T22:29:18.037Z,1.77
2022-09-21T22:31:49.445Z,3.33
2022-09-21T22:34:16.663Z,4.23
2022-09-21T22:36:44.013Z,5.17
2022-09-21T22:39:13.907Z,4.10
2022-09-21T22:41:43.703Z,5.07
2022-09-21T22:44:13.954Z,5.40
2022-09-21T22:46:44.987Z,6.20
2022-09-21T22:49:11.690Z,3.30
2022-09-21T22:51:38.423Z,3.93
2022-09-21T22:54:05.451Z,4.13
2022-09-21T22:56:33.281Z,3.60
2022-09-21T22:59:04.449Z,5.80
2022-09-21T23:01:40.741Z,2.87
2022-09-21T23:04:14.073Z,2.57
2022-09-21T23:06:43.635Z,3.23
2022-09-21T23:09:16.843Z,3.97
2022-09-21T23:11:47.529Z,3.90
2022-09-21T23:14:15.990Z,3.80
2022-09-21T23:16:43.330Z,4.27
2022-09-21T23:19:15.459Z,3.27
2022-09-21T23:21:49.622Z,2.70
2022-09-21T23:24:17.584Z,2.60
2022-09-21T23:26:50.642Z,2.70
2022-09-21T23:29:20.909Z,3.93
2022-09-21T23:31:47.701Z,4.90
2022-09-21T23:34:15.495Z,2.97
2022-09-21T23:36:46.971Z,2.77
2022-09-21T23:39:16.166Z,2.70
2022-09-21T23:41:43.832Z,3.20
2022-09-21T23:44:12.125Z,2.90
2022-09-21T23:46:40.740Z,3.80
2022-09-21T23:49:07.865Z,2.53
2022-09-21T23:51:40.655Z,2.40
2022-09-21T23:54:07.867Z,2.80
2022-09-21T23:56:35.252Z,2.53
2022-09-21T23:59:02.417Z,2.87
